Roes Welcome - northern half: Past 24 Hour Conditions

 

Cape Dorset Airport

07:00 PM EST 24 November 2014
This table is a summary of hourly weather conditions for the past 24 hours.
Date / Time
(EST)
Wind(knots) Conditions Visibility(km) Pressure(kPa) Air tempC) Relative humidity(%) Dew pointC) Wind Chill
24 November 2014
19:00 WNW 9 Cloudy 16 100.3 -17 78 -20 -26
18:00 WNW 10 Light Snow 16 100.3 -18 78 -21 -27
17:00 WNW 12 Light Snow 24 100.2 -18 78 -21 -28
16:00 W 11 Light Snow 24 100.2 -18 78 -21 -28
15:00 WNW 11 Light Snow 24 100.2 -18 78 -21 -28
14:00 WNW 12 Light Snow 24 100.2 -18 78 -21 -28
13:00 WNW 11 Light Snow 24 100.2 -18 80 -21 -29
12:00 W 9 Partly Cloudy 24 100.2 -20 81 -22 -30
11:00 W 10 Mainly Sunny 24 100.2 -20 82 -23 -31
10:00 W 6 Mainly Sunny 24 100.1 -20 82 -23 -28
9:00 WNW 13 Mainly Clear 24 100.1 -19 81 -22 -30
8:00 W 12 Light Snow 24 100.1 -19 81 -22 -30
7:00 W 13 gust 18 Mostly Cloudy 16 100.0 -19 79 -21 -30
6:00 W 11 Cloudy 16 100.0 -19 78 -22 -29
5:00 WNW 11 Mostly Cloudy 16 100.0 -19 75 -22 -29
4:00 W 16 gust 21 Light Snow 11 99.9 -19 72 -22 -31
3:00 WNW 14 Cloudy 16 99.9 -19 74 -22 -30
2:00 WNW 12 gust 17 Cloudy 16 99.9 -19 74 -22 -29
1:00 WNW 11 Cloudy 11 99.8 -19 76 -22 -29
0:00 WNW 13 Light Snow 11 99.8 -18 75 -22 -29
23 November 2014
23:00 WNW 11 Light Snow 6 99.8 -18 79 -21 -28
22:00 WNW 12 Light Snow 5 99.8 -18 81 -20 -28
21:00 WNW 8 Light Snow 5 99.8 -18 82 -20 -26
20:00 WNW 9 Light Snow 5 99.8 -17 84 -20 -26
19:00 WNW 6 Light Snow 3 99.8 -17 83 -19 -24
 
Map of Arctic - Eastern Arctic marine weather areas Baker Lake Airport Chesterfield Inlet Airport Coral Harbour Airport Gjoa Haven Airport Kugaaruk Airport Rankin Inlet Airport Shepherd Bay Airport Whale Cove Airport Arctic Bay Brevoort Island Qikiqtarjuaq Airport Cape Dorset Airport Cape Dyer Cape Hooper Clyde Airport Grise Fiord Airport Hall Beach Airport Igloolik Airport Iqaluit Airport Longstaff Bluff Pangnirtung Airport Pond Inlet Airport Repulse Bay Airport Resolute Airport Resolution Island Rowley Island Airport Taloyoak Airport Wager Bay Akulivik Airport Ivujivik Airport Puvirnituq Airport Kangiqsujuaq Airport Kangirsuk Airport Quaqtaq Airport Tasiujaq Airport Cape Kakkiviak Cape Kiglapait Nain Airport Saglek Cape Mercy Kimmirut Airport Aupaluk Airport Salluit Airport Kangiqsualujjuaq Airport Fort Ross
Legend: buoyBuoy land stationLand Station